Time;durP1;ratioP1;P1;durP2;ratioP2;P2;SDS_P1;SDS_P2;PMS_P1;PMS_P2;Temp;Humidity;BMP_temperature;BMP_pressure;BME280_temperature;BME280_humidity;BME280_pressure;Samples;Min_cycle;Max_cycle;Signal;HPM_P1;HPM_P2
2022/05/15 00:02:01;;;;;;;9.45;3.03;;;14.20;99.90;;;;;;12541555;28;20060;-39
2022/05/15 00:08:16;;;;;;;11.60;2.75;;;14.20;99.90;;;;;;12542734;28;20047;-41
2022/05/15 00:14:40;;;;;;;12.63;2.38;;;14.10;99.90;;;;;;12540495;28;20049;-41
2022/05/15 00:20:57;;;;;;;9.32;2.67;;;14.00;99.90;;;;;;12541136;28;20053;-39
2022/05/15 00:27:14;;;;;;;;;;;13.90;99.90;;;;;;12539049;28;20088;-38
2022/05/15 00:33:23;;;;;;;11.30;2.28;;;13.80;99.90;;;;;;12541710;28;19925;-40
2022/05/15 00:39:35;;;;;;;9.65;2.53;;;13.80;99.90;;;;;;12542834;28;20422;-39
2022/05/15 00:45:51;;;;;;;9.70;2.60;;;13.60;99.90;;;;;;12540140;28;20111;-41
2022/05/15 00:52:18;;;;;;;11.32;2.72;;;13.40;99.90;;;;;;12537666;28;20049;-39
2022/05/15 00:58:42;;;;;;;11.40;2.85;;;13.40;99.90;;;;;;12535078;28;20057;-41
2022/05/15 01:05:11;;;;;;;13.23;3.08;;;13.20;99.90;;;;;;12537256;28;20412;-40
2022/05/15 01:11:32;;;;;;;13.35;2.53;;;13.40;99.90;;;;;;12525781;28;20066;-38
2022/05/15 01:17:49;;;;;;;9.65;2.40;;;13.20;99.90;;;;;;12533315;28;20049;-38
2022/05/15 01:24:07;;;;;;;8.27;2.58;;;13.20;99.90;;;;;;12544842;28;20055;-40
2022/05/15 01:30:21;;;;;;;9.18;3.00;;;13.10;99.90;;;;;;12529792;28;20079;-41
2022/05/15 01:36:34;;;;;;;10.88;2.55;;;13.00;99.90;;;;;;12550608;28;20089;-39
2022/05/15 01:42:45;;;;;;;7.68;2.47;;;12.80;99.90;;;;;;12538536;28;20057;-40
2022/05/15 01:49:06;;;;;;;9.48;2.80;;;12.60;99.90;;;;;;12540454;28;20095;-39
2022/05/15 01:55:23;;;;;;;8.88;2.83;;;12.60;99.90;;;;;;12520044;28;20068;-38
2022/05/15 02:01:36;;;;;;;9.32;2.80;;;12.60;99.90;;;;;;12532028;28;20572;-39
2022/05/15 02:07:51;;;;;;;9.38;2.83;;;12.50;99.90;;;;;;12537325;28;20060;-39
2022/05/15 02:14:07;;;;;;;8.23;2.38;;;12.40;99.90;;;;;;12544060;28;20040;-40
2022/05/15 02:20:20;;;;;;;10.18;2.63;;;12.40;99.90;;;;;;12535701;28;20057;-42
2022/05/15 02:26:35;;;;;;;7.68;2.40;;;12.50;99.90;;;;;;12537713;28;20108;-39
2022/05/15 02:32:54;;;;;;;8.75;2.30;;;12.40;99.90;;;;;;12538607;28;20045;-41
2022/05/15 02:39:10;;;;;;;12.25;2.78;;;12.00;99.90;;;;;;12538647;28;20049;-40
2022/05/15 02:45:22;;;;;;;11.10;3.33;;;11.90;99.90;;;;;;12531420;28;20102;-41
2022/05/15 02:51:44;;;;;;;11.93;2.80;;;11.70;99.90;;;;;;12536056;28;20084;-40
2022/05/15 02:58:04;;;;;;;12.63;2.75;;;11.90;99.90;;;;;;12544655;28;20294;-39
2022/05/15 03:04:19;;;;;;;9.40;2.80;;;11.80;99.90;;;;;;12539452;28;20045;-39
2022/05/15 03:10:30;;;;;;;11.60;3.50;;;11.70;99.90;;;;;;12545363;28;20056;-39
2022/05/15 03:16:43;;;;;;;8.07;2.70;;;11.70;99.90;;;;;;12544849;28;20060;-41
2022/05/15 03:23:02;;;;;;;6.85;2.38;;;11.70;99.90;;;;;;12545415;28;20053;-40
2022/05/15 03:29:19;;;;;;;5.85;2.30;;;11.60;99.90;;;;;;12544241;28;20080;-41
2022/05/15 03:35:30;;;;;;;10.25;3.00;;;11.60;99.90;;;;;;12535815;28;20516;-38
2022/05/15 03:41:45;;;;;;;10.98;2.75;;;11.50;99.90;;;;;;12542436;28;20060;-41
2022/05/15 03:48:03;;;;;;;9.13;2.50;;;11.60;99.90;;;;;;12542898;28;20118;-41
2022/05/15 03:54:17;;;;;;;10.80;2.60;;;11.50;99.90;;;;;;12546753;28;20505;-41
2022/05/15 04:00:25;;;;;;;10.82;3.03;;;11.40;99.90;;;;;;12541999;28;20117;-41
2022/05/15 04:06:36;;;;;;;8.98;2.50;;;11.40;99.90;;;;;;12537265;28;20053;-38
2022/05/15 04:12:44;;;;;;;9.00;2.55;;;11.30;99.90;;;;;;12542792;28;20052;-40
2022/05/15 04:18:51;;;;;;;8.60;2.22;;;11.30;99.90;;;;;;12540879;28;20082;-40
2022/05/15 04:24:56;;;;;;;8.55;2.05;;;11.30;99.90;;;;;;12536512;28;20049;-39
2022/05/15 04:31:06;;;;;;;11.38;3.03;;;11.30;99.90;;;;;;12539466;28;20045;-40
2022/05/15 04:37:17;;;;;;;;;;;11.30;99.90;;;;;;12539720;28;20106;-41
2022/05/15 04:43:32;;;;;;;8.07;2.33;;;11.30;99.90;;;;;;12531492;28;20308;-39
2022/05/15 04:49:41;;;;;;;9.77;2.63;;;11.30;99.90;;;;;;12537640;28;20144;-39
2022/05/15 04:55:55;;;;;;;8.13;2.88;;;11.40;99.90;;;;;;12530110;28;20106;-39
2022/05/15 05:02:10;;;;;;;8.40;2.30;;;11.50;99.90;;;;;;12531925;28;20079;-41
2022/05/15 05:08:24;;;;;;;9.02;2.03;;;11.50;99.90;;;;;;12539269;28;20061;-39
2022/05/15 05:14:32;;;;;;;8.80;2.67;;;11.60;99.90;;;;;;12545412;28;20045;-40
2022/05/15 05:20:47;;;;;;;9.93;2.63;;;11.90;99.90;;;;;;12535989;28;20055;-41
2022/05/15 05:26:50;;;;;;;8.68;2.97;;;12.20;99.90;;;;;;12536280;28;20063;-39
2022/05/15 05:32:57;;;;;;;9.35;2.85;;;12.50;99.90;;;;;;12536097;28;20040;-39
2022/05/15 05:39:02;;;;;;;13.55;3.22;;;12.60;99.90;;;;;;12532747;28;20545;-39
2022/05/15 05:45:10;;;;;;;11.23;3.28;;;12.60;99.90;;;;;;12532070;28;20465;-39
2022/05/15 05:51:21;;;;;;;8.80;2.85;;;12.60;99.90;;;;;;12535614;28;20048;-40
2022/05/15 05:57:28;;;;;;;7.80;3.20;;;12.60;99.90;;;;;;12532668;28;20152;-40
2022/05/15 06:10:03;;;;;;;9.45;2.92;;;12.80;99.90;;;;;;12533507;28;20405;-41
2022/05/15 06:16:11;;;;;;;10.70;2.57;;;13.00;99.90;;;;;;12530103;28;20650;-39
2022/05/15 06:22:19;;;;;;;10.00;3.22;;;13.10;99.90;;;;;;12528932;28;20807;-42
2022/05/15 06:28:24;;;;;;;9.25;3.08;;;13.10;99.90;;;;;;12533138;28;20460;-39
2022/05/15 06:34:33;;;;;;;11.88;3.20;;;13.30;99.90;;;;;;12539741;28;20045;-39
2022/05/15 06:40:44;;;;;;;10.23;3.45;;;13.40;99.90;;;;;;12539165;28;20094;-39
2022/05/15 06:46:46;;;;;;;10.98;2.78;;;13.50;99.90;;;;;;12527350;28;20057;-39
2022/05/15 06:52:49;;;;;;;8.75;2.60;;;13.60;99.90;;;;;;12526856;28;20055;-39
2022/05/15 06:58:52;;;;;;;7.65;2.13;;;14.10;99.90;;;;;;12527922;28;20057;-41
2022/05/15 07:04:54;;;;;;;8.52;2.72;;;14.40;99.90;;;;;;12528137;28;20041;-41
2022/05/15 07:10:56;;;;;;;10.57;2.53;;;14.50;99.90;;;;;;12527832;28;20057;-39
2022/05/15 07:16:59;;;;;;;14.50;3.22;;;14.70;99.90;;;;;;12529533;28;20455;-39
2022/05/15 07:23:04;;;;;;;10.07;2.80;;;14.80;99.90;;;;;;12528870;28;20048;-41
2022/05/15 07:36:33;;;;;;;12.18;2.60;;;15.30;99.90;;;;;;12563814;22;20564;-79
2022/05/15 07:42:38;;;;;;;10.52;2.63;;;15.50;99.90;;;;;;12510625;28;20102;-79
2022/05/15 07:48:39;;;;;;;;;;;15.90;99.90;;;;;;12517147;28;20464;-79
2022/05/15 07:54:41;;;;;;;8.52;2.35;;;16.10;99.90;;;;;;12510965;28;20329;-78
2022/05/15 08:00:43;;;;;;;12.13;2.97;;;16.40;99.90;;;;;;12494151;28;20041;-79
2022/05/15 08:13:06;;;;;;;11.27;2.65;;;16.60;99.90;;;;;;12516430;28;20041;-79
2022/05/15 08:25:29;;;;;;;15.80;3.10;;;16.70;99.90;;;;;;12513590;28;20110;-79
2022/05/15 08:31:31;;;;;;;11.45;2.90;;;17.10;99.90;;;;;;12495244;28;20110;-79
2022/05/15 08:37:33;;;;;;;7.03;2.28;;;17.20;99.90;;;;;;12513150;28;21063;-78
2022/05/15 08:43:46;;;;;;;16.17;3.33;;;17.40;99.90;;;;;;12513128;28;20045;-78
2022/05/15 08:49:57;;;;;;;15.02;3.40;;;17.60;99.90;;;;;;12480086;28;20057;-79
2022/05/15 08:56:00;;;;;;;15.30;3.28;;;17.80;99.90;;;;;;12512192;28;20049;-79
2022/05/15 09:02:03;;;;;;;14.43;3.85;;;17.80;99.90;;;;;;12508239;28;20052;-77
2022/05/15 09:08:20;;;;;;;11.60;2.83;;;17.90;99.90;;;;;;12505120;28;20478;-79
2022/05/15 09:14:27;;;;;;;11.63;2.83;;;18.10;99.90;;;;;;12490944;28;20560;-78
2022/05/15 09:20:55;;;;;;;13.02;3.10;;;17.90;99.90;;;;;;12504497;28;20044;-79
2022/05/15 09:27:17;;;;;;;11.05;2.85;;;18.30;99.90;;;;;;12491944;28;20135;-78
2022/05/15 09:33:33;;;;;;;14.90;3.38;;;18.50;99.90;;;;;;12495724;28;20056;-79
2022/05/15 09:39:44;;;;;;;19.67;3.63;;;18.30;99.90;;;;;;12508696;28;20052;-78
2022/05/15 09:45:55;;;;;;;11.85;2.75;;;18.40;99.90;;;;;;12508431;28;20574;-79
2022/05/15 09:52:00;;;;;;;11.20;2.72;;;18.60;99.90;;;;;;12509301;28;20051;-80
2022/05/15 09:58:05;;;;;;;10.27;2.95;;;18.80;99.90;;;;;;12508644;28;20045;-78
2022/05/15 10:04:21;;;;;;;12.90;2.80;;;19.00;99.90;;;;;;12510411;28;20041;-78
2022/05/15 10:10:34;;;;;;;10.43;2.80;;;19.30;99.90;;;;;;12516224;28;20072;-79
2022/05/15 10:16:52;;;;;;;11.40;2.30;;;19.50;99.90;;;;;;12495708;28;20497;-79
2022/05/15 10:23:00;;;;;;;13.88;2.55;;;20.00;99.90;;;;;;12486886;28;20086;-79
2022/05/15 10:29:30;;;;;;;13.82;3.25;;;19.70;99.90;;;;;;12522786;28;20049;-80
2022/05/15 10:36:02;;;;;;;11.68;2.45;;;20.30;99.90;;;;;;12526438;28;20102;-79
2022/05/15 10:42:24;;;;;;;14.25;3.13;;;20.40;99.90;;;;;;12489242;28;20044;-79
2022/05/15 10:48:47;;;;;;;10.23;2.55;;;20.10;99.90;;;;;;12539407;28;20061;-80
2022/05/15 11:02:02;;;;;;;13.32;3.25;;;20.80;99.90;;;;;;12527033;28;20053;-80
2022/05/15 11:08:26;;;;;;;10.67;3.13;;;21.20;99.90;;;;;;12503721;28;20049;-80
2022/05/15 11:14:49;;;;;;;10.57;3.10;;;21.00;99.90;;;;;;12519409;28;20032;-78
2022/05/15 11:20:56;;;;;;;10.75;2.72;;;21.20;99.90;;;;;;12526581;28;20033;-79
2022/05/15 11:27:29;;;;;;;14.52;3.03;;;21.90;99.90;;;;;;12525971;28;20420;-80
2022/05/15 11:33:47;;;;;;;8.65;2.70;;;22.30;99.90;;;;;;12531806;28;20103;-80
2022/05/15 11:39:59;;;;;;;11.25;2.83;;;22.50;99.90;;;;;;12529787;28;20130;-80
2022/05/15 11:46:05;;;;;;;11.15;2.78;;;22.30;99.90;;;;;;12531538;28;20072;-81
2022/05/15 11:52:08;;;;;;;19.02;3.08;;;22.30;99.90;;;;;;12535616;28;20534;-80
2022/05/15 11:58:34;;;;;;;14.95;3.10;;;21.60;99.90;;;;;;12524630;28;20171;-80
2022/05/15 12:04:36;;;;;;;9.50;2.40;;;21.80;99.90;;;;;;12520746;28;20418;-80
2022/05/15 12:10:39;;;;;;;8.73;2.70;;;21.40;99.90;;;;;;12499344;28;20369;-80
2022/05/15 12:17:16;;;;;;;11.98;2.58;;;21.70;99.90;;;;;;12523884;28;20075;-81
2022/05/15 12:23:22;;;;;;;10.10;2.45;;;21.60;99.90;;;;;;12504652;28;20032;-80
2022/05/15 12:29:33;;;;;;;14.63;2.75;;;21.80;99.90;;;;;;12542243;28;20094;-80
2022/05/15 12:35:39;;;;;;;9.40;2.80;;;21.80;99.90;;;;;;12515522;28;20056;-80
2022/05/15 12:41:44;;;;;;;12.27;2.53;;;22.00;99.90;;;;;;12495127;28;20041;-79
2022/05/15 12:48:08;;;;;;;10.55;3.10;;;22.20;99.90;;;;;;12509057;28;20045;-80
2022/05/15 12:54:27;;;;;;;11.27;2.20;;;22.00;99.90;;;;;;12511137;28;20103;-80
2022/05/15 13:00:39;;;;;;;9.70;2.30;;;22.40;99.90;;;;;;12508152;28;20045;-79
2022/05/15 13:06:49;;;;;;;12.88;2.55;;;22.80;99.90;;;;;;12498754;28;20053;-80
2022/05/15 13:13:01;;;;;;;9.27;2.13;;;22.50;99.90;;;;;;12511623;28;20049;-79
2022/05/15 13:19:03;;;;;;;10.27;2.50;;;22.70;99.90;;;;;;12505208;28;20049;-80
2022/05/15 13:25:10;;;;;;;9.20;2.97;;;22.20;99.90;;;;;;12510544;28;20037;-80
2022/05/15 13:31:13;;;;;;;9.15;2.20;;;22.00;99.90;;;;;;12509737;28;20074;-80
2022/05/15 13:37:26;;;;;;;11.57;2.85;;;21.80;99.90;;;;;;12489276;28;20084;-80
2022/05/15 13:43:31;;;;;;;9.27;2.20;;;21.50;99.90;;;;;;12489280;28;20063;-79
2022/05/15 13:49:37;;;;;;;9.10;2.60;;;21.70;99.90;;;;;;12488538;28;20521;-80
2022/05/15 13:55:41;;;;;;;9.05;2.28;;;22.00;99.90;;;;;;12506715;28;20163;-80
2022/05/15 14:02:02;;;;;;;;;;;22.20;99.90;;;;;;12507099;28;20038;-80
2022/05/15 14:08:17;;;;;;;8.68;2.13;;;22.00;99.90;;;;;;12499532;28;20990;-80
2022/05/15 14:14:42;;;;;;;11.90;2.85;;;21.60;99.90;;;;;;12500198;28;20452;-80
2022/05/15 14:20:47;;;;;;;9.52;2.47;;;21.70;99.90;;;;;;12488323;28;20069;-79
2022/05/15 14:26:49;;;;;;;9.50;2.35;;;21.70;99.90;;;;;;12485242;28;20106;-80
2022/05/15 14:32:55;;;;;;;5.95;2.10;;;21.60;99.90;;;;;;12506798;28;20126;-80
2022/05/15 14:38:57;;;;;;;7.70;2.00;;;21.50;99.90;;;;;;12509164;28;20057;-79
2022/05/15 14:44:58;;;;;;;7.43;1.80;;;21.70;99.90;;;;;;12488348;28;20098;-79
2022/05/15 14:51:04;;;;;;;6.85;1.95;;;21.60;99.90;;;;;;12474287;28;20060;-80
2022/05/15 14:57:06;;;;;;;9.48;2.72;;;21.60;99.90;;;;;;12486985;28;20061;-81
2022/05/15 15:03:08;;;;;;;7.38;2.30;;;21.80;99.90;;;;;;12487875;28;20493;-80
2022/05/15 15:09:11;;;;;;;7.15;2.00;;;21.90;99.90;;;;;;12500283;28;20052;-80
2022/05/15 15:15:13;;;;;;;7.82;2.08;;;21.70;99.90;;;;;;12501364;28;20463;-80
2022/05/15 15:21:17;;;;;;;9.10;2.22;;;21.90;99.90;;;;;;12515772;28;20441;-80
2022/05/15 15:27:19;;;;;;;10.13;2.50;;;21.80;99.90;;;;;;12497139;28;20055;-79
2022/05/15 15:33:21;;;;;;;8.75;1.98;;;21.70;99.90;;;;;;12520194;28;20612;-80
2022/05/15 15:39:23;;;;;;;7.03;2.38;;;21.70;99.90;;;;;;12487368;28;20061;-80
2022/05/15 15:45:25;;;;;;;6.95;1.90;;;21.60;99.90;;;;;;12497486;28;20055;-80
2022/05/15 15:51:29;;;;;;;11.97;2.53;;;21.80;99.90;;;;;;12515462;28;20143;-80
2022/05/15 15:57:31;;;;;;;8.00;2.00;;;21.90;99.90;;;;;;12478878;28;20064;-80
2022/05/15 16:03:33;;;;;;;10.88;2.45;;;22.20;99.90;;;;;;12475132;28;20494;-80
2022/05/15 16:09:38;;;;;;;11.25;2.33;;;22.10;99.90;;;;;;12491413;28;20049;-79
2022/05/15 16:15:40;;;;;;;9.43;2.03;;;21.60;99.90;;;;;;12456944;28;20041;-79
2022/05/15 16:21:46;;;;;;;7.13;2.10;;;21.40;99.90;;;;;;12484866;28;20041;-80
2022/05/15 16:27:49;;;;;;;7.57;2.05;;;21.50;99.90;;;;;;12490702;28;20048;-80
2022/05/15 16:33:51;;;;;;;9.65;2.78;;;21.70;99.90;;;;;;12492132;28;20102;-79
2022/05/15 16:39:57;;;;;;;10.93;2.22;;;22.00;99.90;;;;;;12518309;28;20049;-80
2022/05/15 16:45:59;;;;;;;10.27;2.15;;;21.90;99.90;;;;;;12495546;28;20096;-79
2022/05/15 16:52:01;;;;;;;8.40;2.47;;;21.70;99.90;;;;;;12522784;28;20052;-80
2022/05/15 16:58:04;;;;;;;9.00;2.20;;;21.70;99.90;;;;;;12499415;28;20053;-79
2022/05/15 17:04:06;;;;;;;6.97;2.10;;;21.60;99.90;;;;;;12499666;28;20136;-81
2022/05/15 17:10:08;;;;;;;9.15;2.42;;;21.70;99.90;;;;;;12490229;28;20087;-79
2022/05/15 17:16:10;;;;;;;8.52;2.65;;;21.60;99.90;;;;;;12508256;28;20493;-80
2022/05/15 17:22:12;;;;;;;9.73;2.28;;;21.70;99.90;;;;;;12518047;28;20057;-80
2022/05/15 17:34:12;;;;;;;7.43;2.10;;;21.80;99.90;;;;;;12542458;28;20175;-81
2022/05/15 17:34:36;;;;;;;9.45;2.35;;;21.90;99.90;;;;;;12546270;28;20159;-80
2022/05/15 17:40:38;;;;;;;7.80;2.25;;;21.70;99.90;;;;;;12507686;28;20454;-80
2022/05/15 17:46:40;;;;;;;8.90;2.50;;;21.50;99.90;;;;;;12491811;28;20053;-80
2022/05/15 17:52:43;;;;;;;9.93;2.03;;;21.60;99.90;;;;;;12499466;28;20082;-80
2022/05/15 17:58:44;;;;;;;8.02;2.42;;;21.50;99.90;;;;;;12515713;28;20048;-80
2022/05/15 18:04:47;;;;;;;8.65;2.50;;;21.20;99.90;;;;;;12511724;28;20546;-79
2022/05/15 18:10:52;;;;;;;6.82;2.20;;;20.90;99.90;;;;;;12494706;28;20049;-79
2022/05/15 18:16:55;;;;;;;8.40;2.30;;;20.60;99.90;;;;;;12508742;28;20045;-79
2022/05/15 18:22:57;;;;;;;10.50;2.70;;;20.40;99.90;;;;;;12513994;28;20136;-80
2022/05/15 18:29:00;;;;;;;8.20;2.47;;;20.20;99.90;;;;;;12504319;28;20507;-79
2022/05/15 18:35:03;;;;;;;8.47;2.47;;;20.10;99.90;;;;;;12527683;28;20419;-80
2022/05/15 18:41:06;;;;;;;8.17;2.23;;;19.90;99.90;;;;;;12522580;28;20090;-79
2022/05/15 18:47:08;;;;;;;;;;;19.80;99.90;;;;;;12530411;28;20044;-80
2022/05/15 18:59:31;;;;;;;9.73;2.45;;;19.60;99.90;;;;;;12527749;28;20291;-79
2022/05/15 19:05:32;;;;;;;10.38;2.30;;;19.30;99.90;;;;;;12511124;28;20041;-80
2022/05/15 19:11:34;;;;;;;9.70;2.42;;;19.30;99.90;;;;;;12525034;28;21214;-80
2022/05/15 19:17:37;;;;;;;8.05;2.50;;;19.00;99.90;;;;;;12523472;28;20057;-79
2022/05/15 19:23:39;;;;;;;8.70;2.60;;;19.10;99.90;;;;;;12494398;28;20075;-79
2022/05/15 19:29:45;;;;;;;10.50;2.70;;;18.80;99.90;;;;;;12500775;28;20159;-79
2022/05/15 19:35:47;;;;;;;9.60;2.40;;;18.70;99.90;;;;;;12518369;28;20061;-80
2022/05/15 19:41:50;;;;;;;12.18;2.78;;;18.60;99.90;;;;;;12524376;28;20041;-79
2022/05/15 19:47:51;;;;;;;9.93;2.63;;;18.50;99.90;;;;;;12534217;28;20102;-80
2022/05/15 19:53:53;;;;;;;10.55;2.60;;;18.40;99.90;;;;;;12543991;28;20052;-79
2022/05/15 19:59:55;;;;;;;6.82;2.10;;;18.30;99.90;;;;;;12553033;28;20385;-79
2022/05/15 20:12:37;;;;;;;10.23;2.35;;;18.30;99.90;;;;;;12519329;28;20102;-79
2022/05/15 20:18:40;;;;;;;10.57;2.60;;;18.20;99.90;;;;;;12498770;28;20078;-79
2022/05/15 20:24:46;;;;;;;9.50;2.30;;;18.10;99.90;;;;;;12521199;28;20464;-79
2022/05/15 20:30:51;;;;;;;10.18;2.58;;;18.00;99.90;;;;;;12520639;28;20053;-78
2022/05/15 20:36:54;;;;;;;11.02;2.10;;;17.80;99.90;;;;;;12517167;28;20076;-79
2022/05/15 20:42:56;;;;;;;7.82;2.13;;;17.80;99.90;;;;;;12506621;28;20053;-79
2022/05/15 20:49:00;;;;;;;8.43;2.60;;;17.70;99.90;;;;;;12500776;28;20420;-79
2022/05/15 20:55:07;;;;;;;11.57;2.10;;;17.70;99.90;;;;;;12502560;28;20644;-79
2022/05/15 21:01:11;;;;;;;9.65;2.08;;;17.60;99.90;;;;;;12501564;28;20044;-79
2022/05/15 21:07:13;;;;;;;8.05;2.35;;;17.50;99.90;;;;;;12499474;28;20053;-78
2022/05/15 21:13:15;;;;;;;8.80;2.20;;;17.40;99.90;;;;;;12500358;28;20056;-79
2022/05/15 21:19:17;;;;;;;8.60;2.65;;;17.30;99.90;;;;;;12517836;28;20048;-79
2022/05/15 21:25:18;;;;;;;14.15;2.30;;;17.40;99.90;;;;;;12514487;28;20052;-80
2022/05/15 21:31:21;;;;;;;12.75;2.53;;;17.20;99.90;;;;;;12490625;28;20053;-79
2022/05/15 21:37:31;;;;;;;6.00;1.95;;;17.10;99.90;;;;;;12492529;28;20706;-78
2022/05/15 21:43:34;;;;;;;8.45;2.33;;;17.10;99.90;;;;;;12495171;28;20060;-79
2022/05/15 21:49:36;;;;;;;10.47;2.20;;;17.00;99.90;;;;;;12512435;28;20048;-78
2022/05/15 21:55:38;;;;;;;9.02;2.10;;;17.00;99.90;;;;;;12487279;28;20045;-79
2022/05/15 22:01:40;;;;;;;11.27;2.10;;;17.00;99.90;;;;;;12510810;28;20041;-79
2022/05/15 22:07:42;;;;;;;8.40;1.90;;;17.00;99.90;;;;;;12514754;28;20065;-79
2022/05/15 22:13:44;;;;;;;10.70;2.03;;;17.10;99.90;;;;;;12496076;28;20045;-79
2022/05/15 22:19:46;;;;;;;7.95;2.28;;;17.00;99.90;;;;;;12509599;28;20045;-78
2022/05/15 22:25:48;;;;;;;7.22;1.80;;;17.00;99.90;;;;;;12512363;28;20056;-79
2022/05/15 22:31:51;;;;;;;8.40;2.40;;;17.20;99.90;;;;;;12491588;28;20110;-78
2022/05/15 22:37:54;;;;;;;7.60;2.35;;;17.10;99.90;;;;;;12511408;28;20061;-79
2022/05/15 22:43:56;;;;;;;5.03;2.15;;;17.10;99.90;;;;;;12509718;28;20080;-79
2022/05/15 22:49:59;;;;;;;8.75;2.50;;;17.00;99.90;;;;;;12511041;28;21380;-79
2022/05/15 22:56:01;;;;;;;6.13;1.92;;;17.00;99.90;;;;;;12494065;28;20174;-79
2022/05/15 23:02:04;;;;;;;10.63;2.05;;;16.90;99.90;;;;;;12507867;28;20528;-79
2022/05/15 23:08:06;;;;;;;6.50;2.17;;;17.00;99.90;;;;;;12493520;28;20045;-79
2022/05/15 23:14:08;;;;;;;5.90;1.83;;;16.80;99.90;;;;;;12516417;28;20045;-79
2022/05/15 23:20:11;;;;;;;9.48;2.10;;;16.70;99.90;;;;;;12500531;28;20137;-79
2022/05/15 23:26:13;;;;;;;7.55;1.90;;;16.70;99.90;;;;;;12518825;28;20065;-79
2022/05/15 23:32:15;;;;;;;8.10;1.70;;;16.50;99.90;;;;;;12518385;28;20053;-79
2022/05/15 23:38:17;;;;;;;7.50;2.00;;;16.30;99.90;;;;;;12488558;28;20098;-79
2022/05/15 23:44:19;;;;;;;7.72;2.05;;;16.30;99.90;;;;;;12500679;28;20093;-79
2022/05/15 23:50:22;;;;;;;7.53;2.08;;;16.20;99.90;;;;;;12517302;28;20075;-79
2022/05/15 23:56:24;;;;;;;11.23;2.55;;;16.00;99.90;;;;;;12517699;28;20585;-79
